Franklin, IN (46131)

1:40 PM EDT on July 30, 2016 (GMT -0400)
Union Township - Johnson Co. | | Change Station

Elev 827 ft 39.46 °N, 86.17 °W | Updated 8 seconds ago

Partly Cloudy
Partly Cloudy
80.5 °F
Feels Like 84 °F
N
8.0
Wind Variable Wind from West
Gusts 12.0 mph

Today
High -- | Low -- °F
--% Chance of Precip.
Yesterday
High -- | Low -- °F
Precip. -- in
Pressure 29.96 in
Visibility 10.0 miles
Clouds Few 3600 ft
Heat Index 84 °F
Dew Point 70 °F
Humidity 70%
Rainfall 0.00 in
Snow Depth Not available.
6:42 AM 8:58 PM
Waning Crescent, 12% visible
METAR KGEZ 301653Z AUTO 24008KT 10SM FEW036 28/19 A2997 RMK AO2 SLP143 T02780189
Pressure 29.96 in
Visibility 10.0 miles
Clouds Few 3600 ft
Heat Index 84 °F
Dew Point 70 °F
Humidity 70%
Rainfall 0.00 in
Snow Depth Not available.
6:42 AM 8:58 PM
Waning Crescent, 12% visible
METAR KGEZ 301653Z AUTO 24008KT 10SM FEW036 28/19 A2997 RMK AO2 SLP143 T02780189

10-Day Weather Forecast

Almanac

Astronomy

Jul. 30, 2016 Rise Set
Actual Time
Civil Twilight
Nautical Twilight
Astronomical Twilight
Moon
Length of Visible Light
Length of Day
Tomorrow will be .
, % of the Moon is Illuminated

Today's Extremes

State Highs State Lows

Community

WunderPhotos

Upload Photos

1,928,600 photos uploaded!

WunderBlog® & News

Nearby

Air Quality

  Air Quality AQ Index Pollutant
Not available.

Snow Depth

Station Depth Elevation

Earthquake Activity

City Distance Mag. Time & Date
Minimum magnitude displayed is 2.5.

Coastal Water Temperatures

Place Temperature

Stations

Nearby Weather Stations

Station Location Temp. Windchill Dew Point Humidity Wind Precip. Elev Updated Type
                   

Watches & Warnings

There are currently no watches in effect.